Time;durP1;ratioP1;P1;durP2;ratioP2;P2;SDS_P1;SDS_P2;PMS_P1;PMS_P2;Temp;Humidity;BMP_temperature;BMP_pressure;BME280_temperature;BME280_humidity;BME280_pressure;Samples;Min_cycle;Max_cycle;Signal;HPM_P1;HPM_P2
2021/09/15 00:00:15;;;;;;;3.75;3.17;;;24.50;63.80;;;;;;5050876;28;20089;-45
2021/09/15 00:02:41;;;;;;;3.78;2.90;;;24.50;63.70;;;;;;5036311;28;20029;-45
2021/09/15 00:05:07;;;;;;;4.65;3.17;;;24.50;63.90;;;;;;5034155;28;20022;-48
2021/09/15 00:07:36;;;;;;;7.82;3.78;;;24.50;63.80;;;;;;5035744;28;20033;-47
2021/09/15 00:10:03;;;;;;;7.38;4.20;;;24.40;63.80;;;;;;5034206;28;20122;-46
2021/09/15 00:12:29;;;;;;;3.28;2.92;;;24.40;63.70;;;;;;5035315;28;20044;-45
2021/09/15 00:14:55;;;;;;;3.38;2.97;;;24.50;63.80;;;;;;5058530;28;20028;-49
2021/09/15 00:17:20;;;;;;;3.80;3.38;;;24.40;63.70;;;;;;5038174;28;20152;-47
2021/09/15 00:19:46;;;;;;;3.55;3.17;;;24.40;63.80;;;;;;5034513;28;20068;-44
2021/09/15 00:22:11;;;;;;;4.60;3.08;;;24.40;63.60;;;;;;5048412;28;20450;-45
2021/09/15 00:24:37;;;;;;;4.18;3.05;;;24.40;63.80;;;;;;5053863;28;20055;-45
2021/09/15 00:27:03;;;;;;;4.07;3.22;;;24.40;63.60;;;;;;5053380;28;20470;-46
2021/09/15 00:29:28;;;;;;;3.85;2.95;;;24.50;63.60;;;;;;5054393;28;20029;-48
2021/09/15 00:31:54;;;;;;;4.97;3.28;;;24.50;63.50;;;;;;5064084;28;20091;-44
2021/09/15 00:34:20;;;;;;;5.88;3.03;;;24.50;63.50;;;;;;5063505;28;20031;-45
2021/09/15 00:36:45;;;;;;;3.22;2.88;;;24.50;63.50;;;;;;5041982;28;20029;-45
2021/09/15 00:39:11;;;;;;;5.03;2.75;;;24.50;63.50;;;;;;5052652;28;20043;-45
2021/09/15 00:41:37;;;;;;;4.97;3.10;;;24.50;63.50;;;;;;5043199;28;20040;-45
2021/09/15 00:44:09;;;;;;;5.20;3.08;;;24.50;63.50;;;;;;5042364;28;20021;-47
2021/09/15 00:46:36;;;;;;;3.05;2.75;;;24.50;63.70;;;;;;5052219;28;20061;-46
2021/09/15 00:49:02;;;;;;;3.70;3.25;;;24.50;63.70;;;;;;5053278;28;20029;-54
2021/09/15 00:51:28;;;;;;;4.15;3.13;;;24.50;63.70;;;;;;5047413;28;20022;-44
2021/09/15 00:53:54;;;;;;;5.20;3.00;;;24.50;63.70;;;;;;5033804;28;20033;-46
2021/09/15 00:56:20;;;;;;;4.82;3.38;;;24.50;63.70;;;;;;5033215;28;20086;-49
2021/09/15 00:58:46;;;;;;;4.03;3.30;;;24.50;63.70;;;;;;5033667;28;20030;-45
2021/09/15 01:01:11;;;;;;;4.78;3.42;;;24.50;63.80;;;;;;5042075;28;20064;-45
2021/09/15 01:03:38;;;;;;;4.15;3.30;;;24.40;63.80;;;;;;5050333;28;20034;-44
2021/09/15 01:06:04;;;;;;;4.43;2.75;;;24.40;63.90;;;;;;5048928;28;20049;-45
2021/09/15 01:08:31;;;;;;;4.25;3.28;;;24.50;64.00;;;;;;5053713;28;20036;-44
2021/09/15 01:10:58;;;;;;;4.50;3.20;;;24.50;63.90;;;;;;5053031;28;20108;-46
2021/09/15 01:13:25;;;;;;;3.80;2.95;;;24.50;63.80;;;;;;5044750;28;20034;-45
2021/09/15 01:15:51;;;;;;;5.85;2.92;;;24.50;63.90;;;;;;5033523;28;20026;-51
2021/09/15 01:18:19;;;;;;;5.57;3.53;;;24.50;63.90;;;;;;5031487;28;20032;-45
2021/09/15 01:20:45;;;;;;;4.38;3.92;;;24.50;63.80;;;;;;5033275;28;20037;-47
2021/09/15 01:23:12;;;;;;;3.85;3.40;;;24.50;63.90;;;;;;5033035;28;20068;-46
2021/09/15 01:25:38;;;;;;;3.28;2.97;;;24.50;63.90;;;;;;5044624;28;20060;-50
2021/09/15 01:28:04;;;;;;;3.55;2.92;;;24.50;63.90;;;;;;5052563;28;20041;-50
2021/09/15 01:30:30;;;;;;;4.93;3.20;;;24.50;64.00;;;;;;5052752;28;20037;-50
2021/09/15 01:32:56;;;;;;;9.52;4.15;;;24.50;64.00;;;;;;5038731;28;20159;-47
2021/09/15 01:35:22;;;;;;;4.50;3.10;;;24.50;63.90;;;;;;5033254;28;20032;-46
2021/09/15 01:37:48;;;;;;;4.43;3.13;;;24.50;64.00;;;;;;5051653;28;20025;-47
2021/09/15 01:40:14;;;;;;;3.30;2.70;;;24.50;64.00;;;;;;5048178;28;20037;-45
2021/09/15 01:42:40;;;;;;;3.85;3.25;;;24.50;64.00;;;;;;5052525;28;20021;-46
2021/09/15 01:45:08;;;;;;;3.63;2.85;;;24.50;64.00;;;;;;5051930;28;20051;-45
2021/09/15 01:47:34;;;;;;;3.10;2.78;;;24.50;64.00;;;;;;5053189;28;20053;-44
2021/09/15 01:50:00;;;;;;;4.50;2.90;;;24.50;64.00;;;;;;5052614;28;20037;-53
2021/09/15 01:52:25;;;;;;;4.25;3.13;;;24.50;64.10;;;;;;5051418;28;20055;-46
2021/09/15 01:54:51;;;;;;;5.00;3.30;;;24.50;64.10;;;;;;5032563;28;20033;-46
2021/09/15 01:57:17;;;;;;;3.92;3.53;;;24.50;64.10;;;;;;5030812;28;20033;-47
2021/09/15 01:59:42;;;;;;;4.60;3.13;;;24.50;64.10;;;;;;5039924;28;20033;-49
2021/09/15 02:02:11;;;;;;;4.68;3.30;;;24.50;64.10;;;;;;5035914;28;20124;-45
2021/09/15 02:04:41;;;;;;;4.18;3.15;;;24.50;64.10;;;;;;5032510;28;20026;-48
2021/09/15 02:07:08;;;;;;;4.32;3.00;;;24.50;64.20;;;;;;5039338;28;20436;-45
2021/09/15 02:09:34;;;;;;;4.25;3.40;;;24.50;64.20;;;;;;5052462;28;20036;-45
2021/09/15 02:11:59;;;;;;;4.38;3.88;;;24.50;64.20;;;;;;5045719;28;20379;-46
2021/09/15 02:14:25;;;;;;;4.68;3.58;;;24.50;64.20;;;;;;5040180;28;20043;-45
2021/09/15 02:16:51;;;;;;;4.70;3.38;;;24.50;64.30;;;;;;5052128;28;20024;-49
2021/09/15 02:19:17;;;;;;;4.72;3.38;;;24.50;64.30;;;;;;5051276;28;20032;-45
2021/09/15 02:21:44;;;;;;;3.70;3.20;;;24.50;64.30;;;;;;5042386;28;20083;-47
2021/09/15 02:24:10;;;;;;;5.97;3.58;;;24.50;64.30;;;;;;5031667;28;20036;-47
2021/09/15 02:26:36;;;;;;;3.95;3.40;;;24.50;64.30;;;;;;5041896;28;20029;-50
2021/09/15 02:29:03;;;;;;;4.65;3.28;;;24.50;64.40;;;;;;5052034;28;20066;-55
2021/09/15 02:31:29;;;;;;;4.93;3.42;;;24.50;64.40;;;;;;5059401;28;20043;-49
2021/09/15 02:33:55;;;;;;;4.47;3.35;;;24.50;64.50;;;;;;5071966;28;20389;-49
2021/09/15 02:36:21;;;;;;;5.32;3.30;;;24.50;64.50;;;;;;5043372;28;20025;-47
2021/09/15 02:38:48;;;;;;;4.10;3.30;;;24.50;64.50;;;;;;5032130;28;20039;-45
2021/09/15 02:41:13;;;;;;;6.57;3.90;;;24.50;64.50;;;;;;5038491;28;20033;-46
2021/09/15 02:43:39;;;;;;;5.10;3.50;;;24.50;64.50;;;;;;5050262;28;20352;-45
2021/09/15 02:46:05;;;;;;;4.82;3.40;;;24.50;64.50;;;;;;5050552;28;20530;-52
2021/09/15 02:48:30;;;;;;;4.55;3.55;;;24.50;64.50;;;;;;5051905;28;20029;-46
2021/09/15 02:50:56;;;;;;;4.65;3.60;;;24.50;65.10;;;;;;5034482;28;20037;-51
2021/09/15 02:53:25;;;;;;;3.90;3.47;;;24.50;64.60;;;;;;5031237;28;20668;-47
2021/09/15 02:55:51;;;;;;;4.80;3.80;;;24.50;64.50;;;;;;5031647;28;20029;-46
2021/09/15 02:58:16;;;;;;;6.55;3.42;;;24.50;64.50;;;;;;5031050;28;20120;-49
2021/09/15 03:00:42;;;;;;;3.70;3.25;;;24.50;64.60;;;;;;5034457;28;20053;-48
2021/09/15 03:03:08;;;;;;;5.07;3.60;;;24.50;64.60;;;;;;5070882;28;20020;-46
2021/09/15 03:05:34;;;;;;;3.92;3.25;;;24.50;64.60;;;;;;5062880;28;20025;-46
2021/09/15 03:08:00;;;;;;;4.18;3.65;;;24.50;64.60;;;;;;5051774;28;20032;-45
2021/09/15 03:10:26;;;;;;;5.13;3.83;;;24.50;64.60;;;;;;5050054;28;20591;-47
2021/09/15 03:12:52;;;;;;;4.03;3.63;;;24.50;64.60;;;;;;5047716;28;20104;-46
2021/09/15 03:15:18;;;;;;;7.78;3.83;;;24.50;64.70;;;;;;5050552;28;20470;-48
2021/09/15 03:17:43;;;;;;;4.50;3.55;;;24.50;64.60;;;;;;5036058;28;20025;-48
2021/09/15 03:20:10;;;;;;;4.05;3.47;;;24.50;64.70;;;;;;5050773;28;20025;-46
2021/09/15 03:22:35;;;;;;;4.10;3.55;;;24.50;64.70;;;;;;5051263;28;20498;-53
2021/09/15 03:25:01;;;;;;;4.47;3.70;;;24.50;64.70;;;;;;5051681;28;20029;-46
2021/09/15 03:27:27;;;;;;;4.53;3.55;;;24.50;64.70;;;;;;5053149;28;20037;-46
2021/09/15 03:29:53;;;;;;;4.82;3.70;;;24.50;64.70;;;;;;5055736;28;20083;-45
2021/09/15 03:32:18;;;;;;;4.55;3.33;;;24.50;64.70;;;;;;5068959;28;20101;-46
2021/09/15 03:34:44;;;;;;;4.50;3.40;;;24.50;64.70;;;;;;5074785;28;20031;-45
2021/09/15 03:37:10;;;;;;;4.13;3.20;;;24.50;64.70;;;;;;5052620;28;20436;-46
2021/09/15 03:39:36;;;;;;;3.72;3.35;;;24.50;64.80;;;;;;5055160;28;20424;-46
2021/09/15 03:42:02;;;;;;;5.30;3.90;;;24.50;64.80;;;;;;5041685;28;20037;-45
2021/09/15 03:44:28;;;;;;;4.65;3.80;;;24.50;64.80;;;;;;5034449;28;20034;-47
2021/09/15 03:46:54;;;;;;;4.38;3.85;;;24.50;64.80;;;;;;5048210;28;20037;-45
2021/09/15 03:49:20;;;;;;;4.55;3.53;;;24.50;64.80;;;;;;5053973;28;20025;-50
2021/09/15 03:51:46;;;;;;;4.57;3.50;;;24.50;64.80;;;;;;5053921;28;20028;-47
2021/09/15 03:54:11;;;;;;;4.30;3.38;;;24.50;64.90;;;;;;5070987;28;20146;-45
2021/09/15 03:56:37;;;;;;;5.53;3.75;;;24.50;64.90;;;;;;5063772;28;20037;-45
2021/09/15 03:59:03;;;;;;;4.97;3.38;;;24.50;65.00;;;;;;5054683;28;20033;-45
2021/09/15 04:01:29;;;;;;;5.05;3.72;;;24.50;65.00;;;;;;5060845;28;20061;-47
2021/09/15 04:03:54;;;;;;;4.90;3.35;;;24.50;65.10;;;;;;5063025;28;20104;-46
2021/09/15 04:06:20;;;;;;;5.93;3.33;;;24.50;65.10;;;;;;5040767;28;20054;-44
2021/09/15 04:08:45;;;;;;;4.65;4.20;;;24.50;65.10;;;;;;5034363;28;20451;-46
2021/09/15 04:11:11;;;;;;;5.10;3.33;;;24.50;65.20;;;;;;5051095;28;20462;-48
2021/09/15 04:13:37;;;;;;;3.97;3.38;;;24.50;65.20;;;;;;5073321;28;20508;-48
2021/09/15 04:16:02;;;;;;;4.22;3.47;;;24.50;65.20;;;;;;5039623;28;20021;-46
2021/09/15 04:18:28;;;;;;;4.78;3.15;;;24.50;65.20;;;;;;5053521;28;20079;-46
2021/09/15 04:20:54;;;;;;;6.30;3.80;;;24.50;65.30;;;;;;5054507;28;20108;-45
2021/09/15 04:23:26;;;;;;;3.50;3.15;;;24.50;65.40;;;;;;5053528;28;20421;-47
2021/09/15 04:31:24;;;;;;;4.22;3.83;;;24.50;65.50;;;;;;5050062;28;20055;-47
2021/09/15 04:33:50;;;;;;;4.63;3.63;;;24.50;65.60;;;;;;5052965;28;20123;-45
2021/09/15 04:36:17;;;;;;;5.93;3.60;;;24.40;65.60;;;;;;5051541;28;20028;-45
2021/09/15 04:38:43;;;;;;;6.22;4.00;;;24.40;65.50;;;;;;5050924;28;20061;-45
2021/09/15 04:41:08;;;;;;;4.63;3.60;;;24.50;65.50;;;;;;5051528;28;20065;-53
2021/09/15 04:43:34;;;;;;;4.07;3.35;;;24.50;65.50;;;;;;5048751;28;20029;-44
2021/09/15 04:46:00;;;;;;;4.20;3.38;;;24.40;65.40;;;;;;5050480;28;20029;-46
2021/09/15 04:48:25;;;;;;;5.47;4.38;;;24.40;65.40;;;;;;5051946;28;20063;-47
2021/09/15 04:50:51;;;;;;;4.00;3.58;;;24.50;65.30;;;;;;5052296;28;20132;-45
2021/09/15 04:53:17;;;;;;;5.00;3.63;;;24.50;65.80;;;;;;5051901;28;20033;-44
2021/09/15 04:55:43;;;;;;;6.70;3.70;;;24.50;65.20;;;;;;5049644;28;20108;-47
2021/09/15 04:58:08;;;;;;;3.38;3.05;;;24.50;65.10;;;;;;5052002;28;20115;-56
2021/09/15 05:00:34;;;;;;;6.22;3.78;;;24.50;65.10;;;;;;5051381;28;20057;-45
2021/09/15 05:03:00;;;;;;;5.15;3.63;;;24.50;65.10;;;;;;5052289;28;20025;-44
2021/09/15 05:05:25;;;;;;;4.15;3.22;;;24.50;65.10;;;;;;5051095;28;20179;-45
2021/09/15 05:07:51;;;;;;;4.30;3.40;;;24.50;65.10;;;;;;5052114;28;20120;-44
2021/09/15 05:10:17;;;;;;;5.13;3.38;;;24.50;65.10;;;;;;5050583;28;20037;-46
2021/09/15 05:12:43;;;;;;;5.75;3.70;;;24.40;65.20;;;;;;5050263;28;20381;-44
2021/09/15 05:15:09;;;;;;;4.97;3.47;;;24.50;65.20;;;;;;5050488;28;20112;-54
2021/09/15 05:17:35;;;;;;;3.97;3.45;;;24.50;65.10;;;;;;5051755;28;20029;-45
2021/09/15 05:20:01;;;;;;;3.58;3.22;;;24.50;65.10;;;;;;5051902;28;20128;-45
2021/09/15 05:22:27;;;;;;;6.97;3.38;;;24.50;65.20;;;;;;5049195;28;20212;-55
2021/09/15 05:24:54;;;;;;;7.63;3.47;;;24.50;65.40;;;;;;5052877;28;20032;-46
2021/09/15 05:27:20;;;;;;;4.65;3.05;;;24.50;65.70;;;;;;5048625;28;20416;-52
2021/09/15 05:29:46;;;;;;;5.25;3.13;;;24.50;65.60;;;;;;5051681;28;20033;-49
2021/09/15 05:32:12;;;;;;;4.97;3.33;;;24.50;65.70;;;;;;5051118;28;20069;-45
2021/09/15 05:34:40;;;;;;;4.70;3.30;;;24.50;65.70;;;;;;5051731;28;20059;-49
2021/09/15 05:37:06;;;;;;;4.00;3.08;;;24.50;66.00;;;;;;5051294;28;20131;-53
2021/09/15 05:39:32;;;;;;;5.97;3.35;;;24.50;66.00;;;;;;5050227;28;20116;-45
2021/09/15 05:41:57;;;;;;;4.85;3.28;;;24.50;66.20;;;;;;5050965;28;20037;-48
2021/09/15 05:44:23;;;;;;;3.72;3.00;;;24.50;66.40;;;;;;5041742;28;20028;-46
2021/09/15 05:46:49;;;;;;;6.28;3.08;;;24.50;66.00;;;;;;5051082;28;20398;-47
2021/09/15 05:49:14;;;;;;;3.47;2.97;;;24.50;66.20;;;;;;5050974;28;20086;-46
2021/09/15 05:51:40;;;;;;;6.03;3.35;;;24.40;66.30;;;;;;5051985;28;20037;-46
2021/09/15 05:54:08;;;;;;;6.03;3.53;;;24.50;66.60;;;;;;5044096;28;20604;-46
2021/09/15 05:56:33;;;;;;;5.22;3.10;;;24.50;66.90;;;;;;5042213;28;20462;-46
2021/09/15 05:58:59;;;;;;;7.07;3.05;;;24.50;66.80;;;;;;5035762;28;20040;-44
2021/09/15 06:01:25;;;;;;;2.97;2.58;;;24.50;67.00;;;;;;5039365;28;20128;-48
2021/09/15 06:03:50;;;;;;;4.93;3.05;;;24.50;66.90;;;;;;5039740;28;20048;-49
2021/09/15 06:06:16;;;;;;;6.22;3.40;;;24.50;67.20;;;;;;5071657;28;20115;-45
2021/09/15 06:08:41;;;;;;;6.25;2.65;;;24.40;67.90;;;;;;5049140;28;20048;-46
2021/09/15 06:11:07;;;;;;;5.15;2.80;;;24.50;67.90;;;;;;5042633;28;20466;-45
2021/09/15 06:13:34;;;;;;;9.63;4.50;;;24.40;67.90;;;;;;5048914;28;20148;-47
2021/09/15 06:16:01;;;;;;;6.00;2.70;;;24.50;68.00;;;;;;5047736;28;20043;-45
2021/09/15 06:18:26;;;;;;;8.55;2.67;;;24.50;68.10;;;;;;5047446;28;20443;-46
2021/09/15 06:20:52;;;;;;;5.75;3.35;;;24.50;68.40;;;;;;5052300;28;20072;-46
2021/09/15 06:23:18;;;;;;;7.93;3.25;;;24.40;67.90;;;;;;5051474;28;20029;-50
2021/09/15 06:25:43;;;;;;;6.05;3.50;;;24.40;68.00;;;;;;5046325;28;20017;-47
2021/09/15 06:28:12;;;;;;;5.22;3.35;;;24.40;68.00;;;;;;5049674;28;20029;-47
2021/09/15 06:30:39;;;;;;;6.80;3.10;;;24.40;68.00;;;;;;5044845;28;20031;-47
2021/09/15 06:33:07;;;;;;;6.93;3.70;;;24.40;68.00;;;;;;5071725;28;20055;-46
2021/09/15 06:35:33;;;;;;;5.40;3.17;;;24.40;68.50;;;;;;5063746;28;20029;-46
2021/09/15 06:37:59;;;;;;;3.97;3.55;;;24.40;68.40;;;;;;5050805;28;20035;-46
2021/09/15 06:40:24;;;;;;;6.53;2.80;;;24.40;68.50;;;;;;5051059;28;20066;-45
2021/09/15 06:42:50;;;;;;;4.60;2.70;;;24.40;68.70;;;;;;5038745;28;20033;-50
2021/09/15 06:45:16;;;;;;;4.90;2.83;;;24.40;68.10;;;;;;5049482;28;20033;-48
2021/09/15 06:47:43;;;;;;;11.00;3.40;;;24.40;68.20;;;;;;5033302;28;20040;-44
2021/09/15 06:50:11;;;;;;;6.53;3.28;;;24.40;68.80;;;;;;5030208;28;20040;-46
2021/09/15 06:52:37;;;;;;;3.85;3.13;;;24.40;68.50;;;;;;5032755;28;20029;-44
2021/09/15 06:55:04;;;;;;;3.83;3.05;;;24.40;68.30;;;;;;5044057;28;20039;-44
2021/09/15 06:57:29;;;;;;;6.30;3.17;;;24.40;68.30;;;;;;5035620;28;20025;-45
2021/09/15 06:59:55;;;;;;;5.25;3.40;;;24.40;68.10;;;;;;5052050;28;20056;-48
2021/09/15 07:02:20;;;;;;;4.53;2.85;;;24.40;68.60;;;;;;5032419;28;20608;-46
2021/09/15 07:04:46;;;;;;;5.30;3.65;;;24.40;68.30;;;;;;5031563;28;20030;-49
2021/09/15 07:07:12;;;;;;;4.95;3.10;;;24.40;68.20;;;;;;5031613;28;20056;-54
2021/09/15 07:09:37;;;;;;;5.45;3.20;;;24.50;68.40;;;;;;5035094;28;20029;-48
2021/09/15 07:12:03;;;;;;;5.20;3.33;;;24.50;68.40;;;;;;5050457;28;20029;-44
2021/09/15 07:14:29;;;;;;;6.57;3.33;;;24.40;68.30;;;;;;5068911;28;20086;-47
2021/09/15 07:16:54;;;;;;;6.50;3.42;;;24.50;68.40;;;;;;5042722;28;20441;-47
2021/09/15 07:19:20;;;;;;;5.55;3.45;;;24.50;68.40;;;;;;5032307;28;20025;-49
2021/09/15 07:21:45;;;;;;;3.38;2.40;;;24.50;68.40;;;;;;5049675;28;20426;-44
2021/09/15 07:24:11;;;;;;;6.47;3.00;;;24.50;68.40;;;;;;5050947;28;20036;-54
2021/09/15 07:26:37;;;;;;;4.50;3.05;;;24.50;68.40;;;;;;5048476;28;20029;-44
2021/09/15 07:29:02;;;;;;;7.10;3.95;;;24.50;68.50;;;;;;5050931;28;20037;-47
2021/09/15 07:31:28;;;;;;;5.70;3.08;;;24.60;68.80;;;;;;5043502;28;20040;-45
2021/09/15 07:33:54;;;;;;;3.28;2.90;;;24.60;68.60;;;;;;5051263;28;20107;-48
2021/09/15 07:36:20;;;;;;;5.35;2.72;;;24.60;68.60;;;;;;5050218;28;20029;-44
2021/09/15 07:38:45;;;;;;;4.15;2.67;;;24.60;68.60;;;;;;5051336;28;20025;-45
2021/09/15 07:41:11;;;;;;;4.43;3.00;;;24.60;68.60;;;;;;5049940;28;20037;-49
2021/09/15 07:43:37;;;;;;;5.50;3.13;;;24.70;68.40;;;;;;5049630;28;20041;-45
2021/09/15 07:46:02;;;;;;;5.20;2.78;;;24.70;68.40;;;;;;5050189;28;20040;-49
2021/09/15 07:48:28;;;;;;;4.57;3.00;;;24.70;68.40;;;;;;5048412;28;20074;-48
2021/09/15 07:50:55;;;;;;;4.25;3.17;;;24.70;68.50;;;;;;5039709;28;20059;-47
2021/09/15 07:53:22;;;;;;;5.50;2.67;;;24.70;68.40;;;;;;5030067;28;20459;-45
2021/09/15 07:55:48;;;;;;;5.38;3.03;;;24.70;68.30;;;;;;5045580;28;20026;-46
2021/09/15 07:58:13;;;;;;;9.73;3.20;;;24.70;68.40;;;;;;5040220;28;20033;-54
2021/09/15 08:00:39;;;;;;;3.80;2.65;;;24.70;68.20;;;;;;5031154;28;20057;-44
2021/09/15 08:03:05;;;;;;;7.65;2.88;;;24.70;68.20;;;;;;5031088;28;20029;-45
2021/09/15 08:05:30;;;;;;;3.42;2.38;;;24.70;68.20;;;;;;5030186;28;20033;-46
2021/09/15 08:07:57;;;;;;;3.67;2.53;;;24.70;68.30;;;;;;5031103;28;20080;-45
2021/09/15 08:10:23;;;;;;;3.97;2.45;;;24.70;68.10;;;;;;5033175;28;20033;-47
2021/09/15 08:12:49;;;;;;;4.25;2.75;;;24.70;68.00;;;;;;5041601;28;20024;-45
2021/09/15 08:15:14;;;;;;;5.10;3.13;;;24.70;68.00;;;;;;5071629;28;20031;-54
2021/09/15 08:17:40;;;;;;;3.55;2.20;;;24.70;68.00;;;;;;5034313;28;20439;-44
2021/09/15 08:20:06;;;;;;;5.80;2.45;;;24.70;67.70;;;;;;5041973;28;20033;-45
2021/09/15 08:22:32;;;;;;;4.28;3.15;;;24.70;67.80;;;;;;5040064;28;20913;-45
2021/09/15 08:24:58;;;;;;;4.65;2.55;;;24.70;67.80;;;;;;5054628;28;20029;-45
2021/09/15 08:27:23;;;;;;;6.88;2.88;;;24.70;67.70;;;;;;5050641;28;20494;-47
2021/09/15 08:29:49;;;;;;;6.03;2.67;;;24.70;67.80;;;;;;5054490;28;20470;-44
2021/09/15 08:32:15;;;;;;;4.53;2.90;;;24.70;67.70;;;;;;5044767;28;20037;-44
2021/09/15 08:34:41;;;;;;;5.53;2.95;;;24.70;67.80;;;;;;5041626;28;20029;-47
2021/09/15 08:37:06;;;;;;;4.07;2.50;;;24.60;67.80;;;;;;5049935;28;20029;-48
2021/09/15 08:39:32;;;;;;;4.60;3.30;;;24.60;67.70;;;;;;5043189;28;20029;-47
2021/09/15 08:41:58;;;;;;;4.15;2.53;;;24.60;67.80;;;;;;5046979;28;20059;-46
2021/09/15 08:44:24;;;;;;;3.90;2.47;;;24.60;68.00;;;;;;5065841;28;20030;-50
2021/09/15 08:46:56;;;;;;;6.65;2.88;;;24.60;68.20;;;;;;5033907;28;20413;-47
2021/09/15 08:49:23;;;;;;;5.93;2.63;;;24.60;68.00;;;;;;5034826;28;20026;-48
2021/09/15 08:51:49;;;;;;;4.70;2.75;;;24.60;68.20;;;;;;5048585;28;20033;-45
2021/09/15 08:54:15;;;;;;;5.90;3.05;;;24.50;68.20;;;;;;5033962;28;20389;-55
2021/09/15 08:56:41;;;;;;;3.83;2.95;;;24.50;68.40;;;;;;5043861;28;20075;-45
2021/09/15 08:59:07;;;;;;;5.00;2.58;;;24.50;68.20;;;;;;5047944;28;20481;-46
2021/09/15 09:01:33;;;;;;;4.07;2.85;;;24.50;68.30;;;;;;5041229;28;20143;-44
2021/09/15 09:03:58;;;;;;;4.32;2.63;;;24.60;68.20;;;;;;5053320;28;20032;-46
2021/09/15 09:06:29;;;;;;;5.65;2.83;;;24.60;68.00;;;;;;5052872;28;20446;-45
2021/09/15 09:09:00;;;;;;;4.18;3.13;;;24.60;67.90;;;;;;5052292;28;20487;-48
2021/09/15 09:11:28;;;;;;;3.55;2.55;;;24.60;67.80;;;;;;5042233;28;20156;-49
2021/09/15 09:13:57;;;;;;;3.92;2.72;;;24.70;67.70;;;;;;5059765;28;20093;-50
2021/09/15 09:16:47;;;;;;;6.22;3.30;;;24.70;67.70;;;;;;5053963;28;20091;-50
2021/09/15 09:19:15;;;;;;;3.83;2.45;;;24.70;67.70;;;;;;5041322;28;20028;-44
2021/09/15 09:21:46;;;;;;;4.05;2.92;;;24.70;67.60;;;;;;5041108;28;20072;-46
2021/09/15 09:24:13;;;;;;;3.37;2.53;;;24.80;67.50;;;;;;5033012;28;20079;-47
2021/09/15 09:26:46;;;;;;;4.28;2.72;;;24.70;67.50;;;;;;5043855;28;20029;-49
2021/09/15 09:29:13;;;;;;;5.47;2.60;;;24.70;67.50;;;;;;5051458;28;20367;-50
2021/09/15 09:31:39;;;;;;;6.68;3.60;;;24.70;67.40;;;;;;5049873;28;20037;-50
2021/09/15 09:34:05;;;;;;;5.97;2.47;;;24.70;67.20;;;;;;5052516;28;20047;-47
2021/09/15 09:36:30;;;;;;;3.53;2.47;;;24.80;67.20;;;;;;5040535;28;20033;-46
2021/09/15 09:38:56;;;;;;;5.15;2.67;;;24.70;67.20;;;;;;5033123;28;20509;-46
2021/09/15 09:41:22;;;;;;;3.72;2.45;;;24.70;67.20;;;;;;5036424;28;20029;-48
2021/09/15 09:43:57;;;;;;;3.75;2.45;;;24.70;67.10;;;;;;5052615;28;20148;-49
2021/09/15 09:46:34;;;;;;;5.40;2.60;;;24.70;67.10;;;;;;5033310;28;20033;-49
2021/09/15 09:49:02;;;;;;;3.95;2.50;;;24.80;67.10;;;;;;5032876;28;20036;-44
2021/09/15 09:51:45;;;;;;;3.30;2.28;;;24.80;67.10;;;;;;5041406;28;20469;-49
2021/09/15 09:54:24;;;;;;;4.28;2.53;;;24.70;66.90;;;;;;5032927;28;20057;-45
2021/09/15 09:56:52;;;;;;;2.92;2.40;;;24.80;67.10;;;;;;5043014;28;20512;-45
2021/09/15 09:59:19;;;;;;;3.25;2.40;;;24.70;67.00;;;;;;5051732;28;20139;-54
2021/09/15 10:01:46;;;;;;;3.50;2.15;;;24.80;66.90;;;;;;5051781;28;20135;-46
2021/09/15 10:04:13;;;;;;;3.90;2.40;;;24.80;67.00;;;;;;5052592;28;20048;-48
2021/09/15 10:06:41;;;;;;;3.63;2.25;;;24.80;66.90;;;;;;5040631;28;20021;-47
2021/09/15 10:09:07;;;;;;;3.63;2.45;;;24.80;66.80;;;;;;5032343;28;20021;-47
2021/09/15 10:11:35;;;;;;;3.72;2.70;;;24.80;66.90;;;;;;5035037;28;20033;-47
2021/09/15 10:14:03;;;;;;;3.35;1.88;;;24.80;66.90;;;;;;5060140;28;20101;-50
2021/09/15 10:16:30;;;;;;;3.05;2.45;;;24.80;67.00;;;;;;5045711;28;20113;-47
2021/09/15 10:19:03;;;;;;;5.07;2.58;;;24.80;67.10;;;;;;5030987;28;20542;-45
2021/09/15 10:21:35;;;;;;;4.05;2.20;;;24.80;67.00;;;;;;5034834;28;20038;-45
2021/09/15 10:24:03;;;;;;;3.95;2.20;;;24.80;67.00;;;;;;5032226;28;20033;-44
2021/09/15 10:26:42;;;;;;;6.03;2.30;;;24.80;67.10;;;;;;5039162;28;20123;-47
2021/09/15 10:29:13;;;;;;;3.03;2.42;;;24.80;67.20;;;;;;5051515;28;20028;-46
2021/09/15 10:32:06;;;;;;;4.05;2.22;;;24.80;67.20;;;;;;5031662;28;20045;-47
2021/09/15 10:34:40;;;;;;;5.97;2.30;;;24.80;67.20;;;;;;5030752;28;20386;-47
2021/09/15 10:37:12;;;;;;;4.13;2.25;;;24.80;67.30;;;;;;5046040;28;20394;-46
2021/09/15 10:40:08;;;;;;;3.03;2.30;;;24.80;67.20;;;;;;5051021;28;20025;-46
2021/09/15 10:42:46;;;;;;;5.28;2.60;;;24.80;67.20;;;;;;5036108;28;20107;-44
2021/09/15 10:45:14;;;;;;;4.15;2.42;;;24.80;67.40;;;;;;5046417;28;20064;-44
2021/09/15 10:47:44;;;;;;;2.85;2.05;;;24.80;67.40;;;;;;5043329;28;20028;-46
2021/09/15 10:50:34;;;;;;;3.97;2.50;;;24.90;67.60;;;;;;5047467;28;20577;-44
2021/09/15 10:53:03;;;;;;;9.40;2.63;;;24.90;67.70;;;;;;5044462;28;20045;-44
2021/09/15 10:55:45;;;;;;;6.40;2.42;;;24.90;67.80;;;;;;5047541;28;20109;-48
2021/09/15 10:58:13;;;;;;;4.72;2.17;;;24.90;67.80;;;;;;5031762;28;20092;-44
2021/09/15 11:00:47;;;;;;;4.88;2.35;;;24.80;68.20;;;;;;5030456;28;20049;-47
2021/09/15 11:03:30;;;;;;;5.35;2.30;;;24.80;68.30;;;;;;5031412;28;20451;-45
2021/09/15 11:05:58;;;;;;;4.43;2.47;;;24.90;68.30;;;;;;5032037;28;20371;-47
2021/09/15 11:09:02;;;;;;;3.83;2.38;;;24.80;68.20;;;;;;5031062;28;20121;-46
2021/09/15 11:11:28;;;;;;;3.42;2.80;;;24.80;68.20;;;;;;5011038;28;20026;-47
2021/09/15 11:13:57;;;;;;;5.60;2.35;;;24.90;68.30;;;;;;5029070;28;20030;-48
2021/09/15 11:16:26;;;;;;;3.58;2.30;;;24.80;68.20;;;;;;5027763;28;20041;-47
2021/09/15 11:19:06;;;;;;;4.05;2.75;;;24.80;68.30;;;;;;5029135;28;20030;-46
2021/09/15 11:21:36;;;;;;;4.75;2.33;;;24.80;68.30;;;;;;5010317;28;20025;-46
2021/09/15 11:24:12;;;;;;;4.00;2.33;;;24.80;68.30;;;;;;5029111;28;20041;-44
2021/09/15 11:26:43;;;;;;;4.55;2.55;;;24.90;68.40;;;;;;5025127;28;20030;-47
2021/09/15 11:29:09;;;;;;;4.65;2.50;;;24.80;68.30;;;;;;5002961;28;20119;-53
2021/09/15 11:31:36;;;;;;;4.55;2.47;;;24.80;68.30;;;;;;5016965;28;20045;-46
2021/09/15 11:34:19;;;;;;;4.32;2.80;;;24.90;68.50;;;;;;5010564;28;20038;-47
2021/09/15 11:36:50;;;;;;;3.88;2.20;;;24.80;68.50;;;;;;5009747;28;20132;-48
2021/09/15 11:39:23;;;;;;;3.70;2.30;;;24.80;68.50;;;;;;5026501;28;20445;-45
2021/09/15 11:41:49;;;;;;;5.95;2.67;;;24.80;68.60;;;;;;5028771;28;20042;-48
2021/09/15 11:44:14;;;;;;;7.63;2.80;;;24.80;68.70;;;;;;5035401;28;20044;-48
2021/09/15 11:46:40;;;;;;;3.88;2.47;;;24.80;68.60;;;;;;5031503;28;20391;-48
2021/09/15 11:49:07;;;;;;;3.55;2.42;;;24.80;68.50;;;;;;5034798;28;20021;-46
2021/09/15 11:51:35;;;;;;;3.30;2.50;;;24.80;68.50;;;;;;5034401;28;20434;-49
2021/09/15 11:56:52;;;;;;;5.63;2.50;;;24.80;68.50;;;;;;5045805;28;20031;-46
2021/09/15 11:59:22;;;;;;;3.08;2.30;;;24.80;68.40;;;;;;5040244;28;20052;-52
2021/09/15 12:01:49;;;;;;;5.50;2.47;;;24.80;68.40;;;;;;5048185;28;20075;-44
2021/09/15 12:04:20;;;;;;;4.05;2.58;;;24.80;69.00;;;;;;5053389;28;20047;-44
2021/09/15 12:06:47;;;;;;;5.20;2.57;;;24.80;68.40;;;;;;5054283;28;20033;-44
2021/09/15 12:09:14;;;;;;;3.25;2.38;;;24.70;68.30;;;;;;5046242;28;20283;-44
2021/09/15 12:11:41;;;;;;;4.28;2.53;;;24.80;68.40;;;;;;5043546;28;20025;-45
2021/09/15 12:14:09;;;;;;;5.03;2.92;;;24.70;68.30;;;;;;5065015;28;20032;-45
2021/09/15 12:16:40;;;;;;;3.20;2.17;;;24.70;68.30;;;;;;5051825;28;20063;-44
2021/09/15 12:19:22;;;;;;;5.60;2.67;;;24.70;68.10;;;;;;5034312;28;20045;-44
2021/09/15 12:21:50;;;;;;;3.67;2.50;;;24.70;68.20;;;;;;5037635;28;20037;-44
2021/09/15 12:24:18;;;;;;;4.10;2.58;;;24.80;68.30;;;;;;5034249;28;20068;-44
2021/09/15 12:26:44;;;;;;;8.20;2.83;;;24.80;68.30;;;;;;5043010;28;20033;-50
2021/09/15 12:29:16;;;;;;;4.47;2.65;;;24.80;68.60;;;;;;5041755;28;20040;-46
2021/09/15 12:31:46;;;;;;;4.18;2.67;;;24.80;68.60;;;;;;5054895;28;20371;-47
2021/09/15 12:34:14;;;;;;;6.00;2.60;;;24.80;68.60;;;;;;5054132;28;20111;-46
2021/09/15 12:36:40;;;;;;;3.17;2.67;;;24.80;68.60;;;;;;5047033;28;20043;-47
2021/09/15 12:39:13;;;;;;;4.85;2.88;;;24.80;68.60;;;;;;5053644;28;20462;-50
2021/09/15 12:42:13;;;;;;;7.13;2.80;;;24.90;68.60;;;;;;5052996;28;20466;-46
2021/09/15 12:44:39;;;;;;;2.72;2.25;;;24.80;68.50;;;;;;5041752;28;20250;-45
2021/09/15 12:47:06;;;;;;;5.10;2.58;;;24.80;68.60;;;;;;5034503;28;20033;-46
2021/09/15 12:49:36;;;;;;;4.85;2.33;;;24.90;68.60;;;;;;5046454;28;20408;-46
2021/09/15 12:52:16;;;;;;;5.00;2.58;;;24.80;68.50;;;;;;5039125;28;20061;-46
2021/09/15 12:54:55;;;;;;;6.63;3.35;;;24.90;68.50;;;;;;5051502;28;20430;-49
2021/09/15 12:57:32;;;;;;;3.70;2.35;;;24.90;68.60;;;;;;5053009;28;20032;-53